Time;durP1;ratioP1;P1;durP2;ratioP2;P2;SDS_P1;SDS_P2;PMS_P1;PMS_P2;Temp;Humidity;BMP_temperature;BMP_pressure;BME280_temperature;BME280_humidity;BME280_pressure;Samples;Min_cycle;Max_cycle;Signal;HPM_P1;HPM_P2
2022/12/20 00:00:11;;;;;;;5.93;1.45;;;21.40;99.90;;;;;;5092404;28;20214;-85
2022/12/20 00:02:44;;;;;;;6.78;1.50;;;21.40;99.90;;;;;;5092488;28;20195;-86
2022/12/20 00:05:15;;;;;;;6.30;1.50;;;21.40;99.90;;;;;;5093840;28;20561;-84
2022/12/20 00:07:46;;;;;;;7.75;1.27;;;21.30;99.90;;;;;;5093105;28;20282;-85
2022/12/20 00:10:17;;;;;;;7.07;1.30;;;21.40;99.90;;;;;;5092897;28;20199;-86
2022/12/20 00:12:48;;;;;;;4.18;1.40;;;21.40;99.90;;;;;;5091634;28;20687;-86
2022/12/20 00:15:19;;;;;;;6.30;1.52;;;21.60;99.90;;;;;;5092022;28;20202;-85
2022/12/20 00:17:52;;;;;;;6.72;1.38;;;21.70;99.90;;;;;;5091516;28;20317;-85
2022/12/20 00:20:23;;;;;;;6.32;1.30;;;21.70;99.90;;;;;;5091861;28;20195;-84
2022/12/20 00:22:54;;;;;;;3.88;1.20;;;21.80;99.90;;;;;;5091534;28;20203;-86
2022/12/20 00:25:25;;;;;;;7.78;1.48;;;21.80;99.90;;;;;;5092070;28;20213;-86
2022/12/20 00:27:56;;;;;;;6.80;1.40;;;21.80;99.90;;;;;;5091403;28;20198;-85
2022/12/20 00:30:26;;;;;;;8.30;1.20;;;21.90;99.90;;;;;;5090927;28;20202;-85
2022/12/20 00:32:59;;;;;;;6.38;1.50;;;22.00;99.90;;;;;;5091125;28;20203;-84
2022/12/20 00:35:30;;;;;;;4.90;1.05;;;22.10;99.90;;;;;;5082752;28;20219;-84
2022/12/20 00:38:00;;;;;;;5.30;1.23;;;22.10;99.90;;;;;;5086739;28;20196;-84
2022/12/20 00:40:31;;;;;;;6.25;1.25;;;22.20;99.90;;;;;;5081683;28;20200;-84
2022/12/20 00:43:02;;;;;;;4.18;1.15;;;22.00;99.90;;;;;;5085320;28;20201;-83
2022/12/20 00:45:33;;;;;;;5.10;1.20;;;21.90;99.90;;;;;;5091139;28;20215;-83
2022/12/20 00:48:05;;;;;;;7.05;1.60;;;21.80;99.90;;;;;;5090647;28;20191;-85
2022/12/20 00:50:37;;;;;;;7.88;1.33;;;21.80;99.90;;;;;;5091581;28;20209;-84
2022/12/20 00:53:09;;;;;;;9.07;1.40;;;21.80;99.90;;;;;;5091055;28;20252;-84
2022/12/20 00:55:44;;;;;;;7.22;1.30;;;21.70;99.90;;;;;;5091224;28;20195;-85
2022/12/20 00:58:15;;;;;;;6.80;1.20;;;21.60;99.90;;;;;;5091213;28;20194;-84
2022/12/20 01:00:46;;;;;;;5.57;1.30;;;21.50;99.90;;;;;;5091824;28;20529;-84
2022/12/20 01:03:19;;;;;;;6.85;1.55;;;21.50;99.90;;;;;;5092984;28;20669;-84
2022/12/20 01:05:57;;;;;;;5.50;1.20;;;21.50;99.90;;;;;;5094108;28;20203;-85
2022/12/20 01:08:29;;;;;;;6.00;1.35;;;21.50;99.90;;;;;;5095360;28;20337;-84
2022/12/20 01:11:05;;;;;;;7.07;1.08;;;21.40;99.90;;;;;;5094725;28;20203;-83
2022/12/20 01:13:37;;;;;;;6.40;1.70;;;21.30;99.90;;;;;;5094385;28;20574;-83
2022/12/20 01:16:09;;;;;;;5.80;1.65;;;21.30;99.90;;;;;;5094254;28;20258;-83
2022/12/20 01:18:42;;;;;;;5.57;1.30;;;21.40;99.90;;;;;;5094877;28;20202;-84
2022/12/20 01:21:15;;;;;;;7.10;1.50;;;21.30;99.90;;;;;;5095144;28;20195;-84
2022/12/20 01:23:45;;;;;;;5.75;1.30;;;21.50;99.90;;;;;;5093711;28;20199;-85
2022/12/20 01:26:18;;;;;;;8.20;1.27;;;21.40;99.90;;;;;;5094543;28;20199;-86
2022/12/20 01:28:54;;;;;;;3.40;1.00;;;21.50;99.90;;;;;;5095169;28;20251;-83
2022/12/20 01:31:25;;;;;;;8.13;1.35;;;21.60;99.90;;;;;;5094524;28;20252;-83
2022/12/20 01:33:57;;;;;;;5.65;1.05;;;21.60;99.90;;;;;;5094534;28;20194;-83
2022/12/20 01:36:29;;;;;;;3.75;1.00;;;21.60;99.90;;;;;;5094304;28;20199;-83
2022/12/20 01:39:01;;;;;;;7.63;1.45;;;21.70;99.90;;;;;;5093411;28;20203;-84
2022/12/20 01:41:33;;;;;;;5.60;1.38;;;21.80;99.90;;;;;;5095738;28;20199;-85
2022/12/20 01:44:05;;;;;;;4.05;1.27;;;21.90;99.90;;;;;;5108167;28;20201;-84
2022/12/20 01:46:38;;;;;;;3.60;0.90;;;22.20;99.90;;;;;;5104286;28;20629;-83
2022/12/20 01:49:16;;;;;;;5.38;1.20;;;22.40;99.90;;;;;;5095155;28;20262;-84
2022/12/20 01:51:48;;;;;;;4.00;0.88;;;22.60;99.90;;;;;;5098495;28;20252;-84
2022/12/20 01:54:23;;;;;;;3.85;1.08;;;22.80;99.90;;;;;;5097156;28;20191;-84
2022/12/20 01:56:57;;;;;;;4.20;1.13;;;22.90;99.90;;;;;;5094486;28;20217;-83
2022/12/20 01:59:31;;;;;;;3.72;1.08;;;22.90;99.90;;;;;;5094450;28;20195;-83
2022/12/20 02:02:04;;;;;;;5.75;1.30;;;23.00;99.90;;;;;;5094173;28;20218;-83
2022/12/20 02:04:37;;;;;;;6.30;1.17;;;23.10;99.90;;;;;;5094098;28;20206;-84
2022/12/20 02:07:10;;;;;;;3.50;1.38;;;23.20;99.90;;;;;;5093691;28;20662;-83
2022/12/20 02:09:41;;;;;;;8.65;1.20;;;23.30;99.90;;;;;;5094263;28;20234;-84
2022/12/20 02:12:16;;;;;;;4.30;1.40;;;23.40;99.90;;;;;;5093649;28;20599;-83
2022/12/20 02:15:01;;;;;;;3.28;0.98;;;23.40;99.90;;;;;;5092045;28;20202;-84
2022/12/20 02:17:42;;;;;;;5.78;0.95;;;23.20;99.90;;;;;;5093517;28;20227;-84
2022/12/20 02:20:53;;;;;;;4.47;1.30;;;23.30;99.90;;;;;;5093752;28;20282;-84
2022/12/20 02:24:00;;;;;;;5.70;1.23;;;23.40;99.90;;;;;;5083207;28;20290;-83
2022/12/20 02:26:53;;;;;;;4.57;1.13;;;23.40;99.90;;;;;;5093775;28;20209;-84
2022/12/20 02:29:33;;;;;;;5.57;1.23;;;23.50;99.90;;;;;;5044026;28;20261;-85
2022/12/20 02:32:11;;;;;;;5.38;1.27;;;23.50;99.20;;;;;;5093559;28;20248;-84
2022/12/20 02:34:43;;;;;;;5.18;1.10;;;23.50;99.90;;;;;;5093442;28;20208;-84
2022/12/20 02:37:14;;;;;;;5.05;0.93;;;23.50;99.90;;;;;;5092469;28;20195;-83
2022/12/20 02:39:46;;;;;;;4.20;1.05;;;23.60;99.90;;;;;;5093357;28;20396;-84
2022/12/20 02:42:18;;;;;;;5.40;0.93;;;23.90;99.60;;;;;;5093075;28;20199;-84
2022/12/20 02:47:47;;;;;;;5.43;1.20;;;24.00;98.40;;;;;;5093472;28;20249;-83
2022/12/20 02:50:23;;;;;;;3.78;0.88;;;23.70;99.40;;;;;;5088517;28;20249;-84
2022/12/20 02:52:54;;;;;;;5.30;1.30;;;23.70;99.50;;;;;;5104567;28;20199;-84
2022/12/20 02:55:34;;;;;;;4.93;1.30;;;23.90;99.90;;;;;;5092517;28;20569;-85
2022/12/20 02:58:11;;;;;;;4.53;1.20;;;24.10;98.80;;;;;;5093005;28;20584;-84
2022/12/20 03:00:48;;;;;;;7.22;1.48;;;24.10;99.70;;;;;;5093344;28;20206;-84
2022/12/20 03:03:24;;;;;;;4.55;1.05;;;24.10;99.90;;;;;;5093280;28;20237;-85
2022/12/20 03:05:56;;;;;;;3.83;0.90;;;24.30;99.20;;;;;;5093292;28;20226;-85
2022/12/20 03:08:27;;;;;;;3.63;1.00;;;24.40;99.50;;;;;;5093094;28;20203;-85
2022/12/20 03:10:59;;;;;;;4.22;0.80;;;24.50;96.20;;;;;;5093574;28;20562;-84
2022/12/20 03:13:30;;;;;;;2.60;0.73;;;24.40;96.70;;;;;;5091815;28;20569;-83
2022/12/20 03:16:01;;;;;;;4.70;0.90;;;24.70;97.40;;;;;;5106233;28;20692;-85
2022/12/20 03:18:33;;;;;;;4.18;1.00;;;24.80;95.50;;;;;;5113397;28;20583;-84
2022/12/20 03:21:04;;;;;;;3.50;1.17;;;24.80;96.80;;;;;;5113306;28;20191;-85
2022/12/20 03:23:35;;;;;;;3.35;0.98;;;25.00;97.10;;;;;;5103731;28;20712;-84
2022/12/20 03:26:06;;;;;;;4.47;1.00;;;24.90;96.10;;;;;;5091819;28;20203;-84
2022/12/20 03:28:37;;;;;;;6.18;1.60;;;24.80;97.10;;;;;;5091598;28;20191;-84
2022/12/20 03:31:08;;;;;;;3.30;1.23;;;24.60;97.80;;;;;;5092735;28;20282;-83
2022/12/20 03:33:41;;;;;;;4.72;0.95;;;24.70;97.80;;;;;;5079154;28;20200;-83
2022/12/20 03:36:12;;;;;;;7.05;1.20;;;24.50;96.30;;;;;;5071888;28;20279;-83
2022/12/20 03:38:42;;;;;;;3.78;0.90;;;24.60;97.10;;;;;;5071672;28;20200;-84
2022/12/20 03:41:13;;;;;;;3.65;0.73;;;24.70;97.50;;;;;;5085643;28;20199;-85
2022/12/20 03:43:44;;;;;;;5.85;1.23;;;24.60;95.80;;;;;;5092702;28;20286;-84
2022/12/20 03:46:15;;;;;;;3.75;1.00;;;24.60;96.90;;;;;;5091474;28;20221;-85
2022/12/20 03:48:48;;;;;;;3.78;1.30;;;24.60;96.70;;;;;;5092531;28;20282;-84
2022/12/20 03:51:18;;;;;;;7.05;1.50;;;24.70;97.20;;;;;;5093398;28;20206;-87
2022/12/20 03:53:49;;;;;;;2.95;0.95;;;24.80;96.20;;;;;;5093845;28;20637;-87
2022/12/20 03:56:24;;;;;;;2.83;1.15;;;24.80;96.00;;;;;;5108762;28;20187;-85
2022/12/20 03:58:54;;;;;;;4.13;0.95;;;24.80;95.80;;;;;;5115930;28;20183;-86
2022/12/20 04:01:27;;;;;;;2.85;0.90;;;24.80;96.60;;;;;;5093191;28;20276;-85
2022/12/20 04:03:59;;;;;;;3.05;0.98;;;24.90;94.80;;;;;;5094523;28;20203;-85
2022/12/20 04:06:30;;;;;;;2.53;0.80;;;25.10;93.80;;;;;;5092890;28;20199;-86
2022/12/20 04:09:01;;;;;;;3.15;1.10;;;25.10;93.50;;;;;;5092731;28;20222;-85
2022/12/20 04:11:33;;;;;;;3.83;0.80;;;25.20;93.90;;;;;;5093379;28;20201;-85
2022/12/20 04:14:04;;;;;;;2.70;0.63;;;25.40;92.30;;;;;;5092662;28;20199;-86
2022/12/20 04:16:35;;;;;;;2.72;0.88;;;25.30;90.90;;;;;;5092919;28;20230;-87
2022/12/20 04:19:08;;;;;;;2.05;0.70;;;25.20;90.10;;;;;;5092414;28;20207;-86
2022/12/20 04:21:39;;;;;;;2.00;0.70;;;25.20;90.10;;;;;;5093005;28;20183;-86
2022/12/20 04:24:10;;;;;;;2.35;0.70;;;25.20;88.80;;;;;;5105201;28;20197;-86
2022/12/20 04:26:41;;;;;;;1.92;0.60;;;25.40;87.90;;;;;;5102715;28;20199;-85
2022/12/20 04:29:12;;;;;;;4.18;0.70;;;25.40;86.00;;;;;;5093742;28;20272;-86
2022/12/20 04:31:43;;;;;;;3.92;0.60;;;25.20;90.10;;;;;;5093525;28;20191;-86
2022/12/20 04:34:15;;;;;;;2.15;0.73;;;24.80;89.10;;;;;;5092847;28;20202;-86
2022/12/20 04:36:46;;;;;;;2.63;0.63;;;24.70;89.40;;;;;;5091060;28;20578;-87
2022/12/20 04:39:17;;;;;;;2.38;0.60;;;24.70;89.80;;;;;;5092091;28;20210;-86
2022/12/20 04:41:48;;;;;;;2.53;0.75;;;24.90;91.00;;;;;;5095001;28;20249;-85
2022/12/20 04:44:19;;;;;;;2.92;0.70;;;25.30;91.00;;;;;;5091935;28;20287;-86
2022/12/20 04:46:50;;;;;;;2.33;0.63;;;25.50;90.40;;;;;;5093255;28;20611;-87
2022/12/20 04:49:24;;;;;;;2.70;0.60;;;25.70;90.30;;;;;;5093082;28;20230;-85
2022/12/20 04:53:46;;;;;;;2.10;0.52;;;25.90;82.50;;;;;;5092368;28;20199;-84
2022/12/20 04:54:46;;;;;;;5.78;0.90;;;25.90;80.70;;;;;;5092282;28;20204;-84
2022/12/20 04:57:17;;;;;;;2.30;0.75;;;25.90;85.30;;;;;;5091923;28;20191;-84
2022/12/20 04:59:48;;;;;;;5.13;0.80;;;26.00;88.10;;;;;;5092766;28;20199;-85
2022/12/20 05:02:21;;;;;;;5.18;0.88;;;26.10;87.70;;;;;;5103912;28;20258;-85
2022/12/20 05:04:54;;;;;;;3.03;0.70;;;26.10;85.80;;;;;;5106230;28;20219;-84
2022/12/20 05:07:25;;;;;;;1.20;0.52;;;26.30;86.30;;;;;;5092319;28;20296;-85
2022/12/20 05:09:56;;;;;;;3.22;0.90;;;26.10;85.90;;;;;;5090132;28;20284;-84
2022/12/20 05:12:27;;;;;;;4.38;0.70;;;26.10;85.30;;;;;;5090885;28;20195;-84
2022/12/20 05:14:58;;;;;;;3.75;0.88;;;26.30;90.30;;;;;;5091039;28;20201;-84
2022/12/20 05:17:29;;;;;;;4.07;0.60;;;26.40;86.60;;;;;;5090751;28;20585;-83
2022/12/20 05:20:02;;;;;;;3.33;0.82;;;26.40;84.70;;;;;;5090991;28;20205;-85
2022/12/20 05:28:07;;;;;;;3.03;0.80;;;25.90;85.10;;;;;;5089978;28;20214;-84
2022/12/20 05:30:38;;;;;;;4.30;0.65;;;25.70;86.00;;;;;;5079671;28;20220;-84
2022/12/20 05:33:09;;;;;;;3.55;0.63;;;25.80;86.40;;;;;;5070538;28;20196;-85
2022/12/20 05:35:41;;;;;;;3.42;0.88;;;26.30;86.20;;;;;;5070701;28;20200;-84
2022/12/20 05:38:12;;;;;;;4.03;0.80;;;26.70;85.80;;;;;;5071032;28;20203;-84
2022/12/20 05:40:44;;;;;;;5.30;0.80;;;27.00;83.70;;;;;;5088864;28;20669;-85
2022/12/20 05:43:15;;;;;;;3.90;0.98;;;27.10;87.30;;;;;;5087389;28;20283;-84
2022/12/20 05:45:49;;;;;;;5.13;0.82;;;26.60;90.30;;;;;;5076288;28;20331;-84
2022/12/20 05:48:21;;;;;;;5.97;0.80;;;26.70;90.00;;;;;;5094271;28;20273;-84
2022/12/20 05:50:57;;;;;;;4.15;0.85;;;27.10;89.40;;;;;;5097893;28;20218;-84
2022/12/20 05:53:28;;;;;;;4.13;1.00;;;27.60;86.60;;;;;;5098230;28;20194;-86
2022/12/20 05:56:00;;;;;;;3.08;0.90;;;28.00;87.10;;;;;;5098264;28;20577;-84
2022/12/20 05:58:31;;;;;;;3.63;0.80;;;28.10;83.60;;;;;;5097775;28;20217;-85
2022/12/20 06:01:04;;;;;;;3.05;1.00;;;28.40;83.90;;;;;;5099446;28;20223;-85
2022/12/20 06:03:35;;;;;;;3.53;0.70;;;28.00;78.40;;;;;;5099761;28;20191;-84
2022/12/20 06:06:09;;;;;;;4.72;0.82;;;28.10;81.10;;;;;;5099575;28;20199;-85
2022/12/20 06:08:40;;;;;;;3.25;0.80;;;27.90;79.80;;;;;;5110431;28;20264;-85
2022/12/20 06:11:13;;;;;;;3.50;0.88;;;27.90;80.60;;;;;;5108799;28;20318;-84
2022/12/20 06:13:44;;;;;;;5.47;1.00;;;28.00;79.40;;;;;;5097146;28;20215;-85
2022/12/20 06:16:19;;;;;;;2.15;0.80;;;27.70;80.30;;;;;;5084183;28;20311;-85
2022/12/20 06:18:50;;;;;;;3.67;0.90;;;27.50;81.60;;;;;;5077857;28;20195;-85
2022/12/20 06:21:23;;;;;;;3.60;0.82;;;27.50;79.30;;;;;;5096902;28;20513;-86
2022/12/20 06:23:55;;;;;;;1.98;0.82;;;27.00;80.90;;;;;;5097762;28;20197;-86
2022/12/20 06:26:26;;;;;;;2.97;0.80;;;26.90;81.50;;;;;;5096078;28;20195;-86
2022/12/20 06:29:00;;;;;;;2.75;0.98;;;27.10;82.00;;;;;;5084455;28;20577;-85
2022/12/20 06:31:31;;;;;;;3.47;0.80;;;27.40;79.90;;;;;;5090106;28;20226;-86
2022/12/20 06:34:02;;;;;;;3.30;0.80;;;27.70;81.50;;;;;;5078569;28;20200;-85
2022/12/20 06:36:36;;;;;;;2.75;0.70;;;27.20;79.10;;;;;;5073907;28;20202;-85
2022/12/20 06:39:08;;;;;;;4.95;1.35;;;27.20;79.50;;;;;;5085019;28;20195;-86
2022/12/20 06:41:39;;;;;;;4.53;0.80;;;27.60;81.10;;;;;;5094451;28;20257;-85
2022/12/20 06:44:10;;;;;;;3.40;0.75;;;28.00;75.20;;;;;;5094421;28;20268;-83
2022/12/20 06:46:40;;;;;;;3.55;0.60;;;28.40;71.40;;;;;;5093844;28;20274;-85
2022/12/20 06:49:12;;;;;;;2.25;0.68;;;28.50;70.00;;;;;;5093845;28;20274;-84
2022/12/20 06:51:44;;;;;;;2.63;0.60;;;29.00;68.80;;;;;;5093839;28;20227;-83
2022/12/20 06:54:15;;;;;;;2.53;0.70;;;29.50;67.50;;;;;;5096177;28;20658;-82
2022/12/20 06:56:46;;;;;;;1.48;0.52;;;29.60;64.00;;;;;;5100747;28;20630;-83
2022/12/20 06:59:17;;;;;;;1.90;0.50;;;30.00;61.50;;;;;;5099721;28;21047;-83
2022/12/20 07:01:48;;;;;;;2.33;0.65;;;30.00;61.40;;;;;;5100448;28;20199;-84
2022/12/20 07:04:18;;;;;;;2.83;0.63;;;30.00;59.40;;;;;;5095235;28;20191;-83
2022/12/20 07:06:51;;;;;;;2.92;0.60;;;30.10;59.90;;;;;;5090341;28;20191;-82
2022/12/20 07:09:22;;;;;;;1.80;0.60;;;30.30;60.50;;;;;;5093366;28;20199;-83
2022/12/20 07:11:53;;;;;;;4.20;0.70;;;30.80;57.10;;;;;;5092984;28;20257;-83
2022/12/20 07:14:23;;;;;;;4.80;1.13;;;30.80;57.80;;;;;;5096795;28;20199;-83
2022/12/20 07:16:54;;;;;;;1.80;0.60;;;30.60;56.10;;;;;;5109273;28;20255;-82
2022/12/20 07:19:25;;;;;;;4.43;1.30;;;30.20;56.00;;;;;;5094661;28;20234;-82
2022/12/20 07:21:58;;;;;;;2.33;0.50;;;30.20;55.90;;;;;;5094020;28;20207;-84
2022/12/20 07:24:32;;;;;;;1.88;0.60;;;30.00;55.50;;;;;;5072305;28;20206;-84
2022/12/20 07:27:03;;;;;;;2.30;0.88;;;29.80;56.00;;;;;;5072692;28;20196;-83
2022/12/20 07:29:35;;;;;;;4.28;0.93;;;29.80;52.60;;;;;;5073213;28;20659;-82
2022/12/20 07:32:05;;;;;;;2.17;0.50;;;30.20;53.00;;;;;;5071871;28;20222;-82
2022/12/20 07:34:38;;;;;;;1.25;0.50;;;30.20;53.50;;;;;;5072349;28;20226;-83
2022/12/20 07:37:11;;;;;;;1.73;0.55;;;30.30;53.80;;;;;;5071817;28;20257;-83
2022/12/20 07:39:42;;;;;;;3.05;0.82;;;30.30;54.40;;;;;;5089355;28;20229;-83
2022/12/20 07:42:15;;;;;;;2.05;0.52;;;30.30;54.80;;;;;;5090782;28;20203;-82
2022/12/20 07:44:46;;;;;;;2.20;0.80;;;30.30;54.20;;;;;;5091540;28;20249;-83
2022/12/20 07:47:17;;;;;;;2.05;0.70;;;29.80;55.30;;;;;;5092383;28;20195;-84
2022/12/20 07:49:50;;;;;;;2.35;0.60;;;29.80;54.70;;;;;;5091653;28;20205;-83
2022/12/20 07:52:24;;;;;;;3.33;1.48;;;29.30;55.60;;;;;;5092230;28;20219;-83
2022/12/20 07:54:58;;;;;;;2.03;0.70;;;29.20;54.00;;;;;;5091862;28;20225;-84
2022/12/20 07:57:33;;;;;;;1.95;0.60;;;29.20;53.50;;;;;;5092427;28;20199;-84
2022/12/20 08:00:07;;;;;;;1.02;0.60;;;29.00;52.40;;;;;;5090822;28;20575;-84
2022/12/20 08:02:42;;;;;;;2.25;0.65;;;28.70;53.30;;;;;;5091942;28;20286;-85
2022/12/20 08:05:13;;;;;;;3.38;1.35;;;28.50;54.50;;;;;;5091105;28;20205;-84
2022/12/20 08:07:47;;;;;;;2.65;0.80;;;28.10;55.90;;;;;;5091610;28;20199;-85
2022/12/20 08:10:21;;;;;;;2.25;1.10;;;27.50;56.70;;;;;;5091635;28;20722;-84
2022/12/20 08:12:53;;;;;;;2.33;1.27;;;26.80;58.40;;;;;;5089961;28;20200;-84
2022/12/20 08:15:24;;;;;;;2.80;1.00;;;26.40;60.90;;;;;;5071714;28;20223;-84
2022/12/20 08:17:55;;;;;;;2.97;0.80;;;25.90;63.20;;;;;;5071543;28;20282;-84
2022/12/20 08:20:25;;;;;;;2.50;0.80;;;25.40;67.20;;;;;;5090038;28;20209;-84
2022/12/20 08:22:58;;;;;;;2.20;0.70;;;25.10;70.90;;;;;;5106530;28;20201;-84
2022/12/20 08:25:29;;;;;;;3.33;1.00;;;24.70;74.70;;;;;;5091623;28;20237;-84
2022/12/20 08:28:02;;;;;;;3.70;1.00;;;24.30;79.40;;;;;;5082030;28;20246;-85
2022/12/20 08:30:33;;;;;;;2.33;0.70;;;23.90;84.90;;;;;;5087929;28;20223;-84
2022/12/20 08:33:04;;;;;;;1.33;0.60;;;23.60;87.10;;;;;;5091771;28;20566;-84
2022/12/20 08:35:35;;;;;;;1.75;0.65;;;23.40;90.00;;;;;;5091112;28;20195;-85
2022/12/20 08:38:07;;;;;;;1.80;0.77;;;23.00;91.90;;;;;;5091085;28;20226;-85
2022/12/20 08:40:38;;;;;;;1.23;0.52;;;22.70;94.90;;;;;;5091001;28;20294;-85
2022/12/20 08:43:09;;;;;;;2.13;0.80;;;22.60;97.70;;;;;;5091286;28;20618;-85
2022/12/20 08:45:40;;;;;;;2.78;1.13;;;22.30;99.10;;;;;;5089747;28;20226;-84
2022/12/20 08:48:10;;;;;;;2.90;1.05;;;22.10;99.90;;;;;;5092074;28;20203;-85
2022/12/20 08:50:41;;;;;;;3.03;1.17;;;21.90;99.90;;;;;;5090998;28;20223;-84
2022/12/20 08:53:14;;;;;;;3.38;0.95;;;21.90;99.90;;;;;;5090717;28;20308;-83
2022/12/20 08:55:45;;;;;;;2.05;1.00;;;21.90;99.90;;;;;;5090914;28;20198;-84
2022/12/20 08:58:16;;;;;;;2.80;1.30;;;21.80;99.90;;;;;;5090637;28;20195;-85
2022/12/20 09:00:47;;;;;;;3.38;1.45;;;21.70;99.90;;;;;;5087854;28;20222;-85
2022/12/20 09:03:18;;;;;;;3.78;1.73;;;21.50;99.90;;;;;;5088890;28;20399;-86
2022/12/20 09:05:49;;;;;;;2.17;0.88;;;21.40;99.90;;;;;;5085274;28;20210;-85
2022/12/20 09:08:22;;;;;;;3.28;0.88;;;21.30;99.90;;;;;;5089396;28;20301;-85
2022/12/20 09:10:53;;;;;;;2.40;0.75;;;21.30;99.90;;;;;;5091089;28;20211;-85
2022/12/20 09:13:26;;;;;;;3.63;1.23;;;21.20;99.90;;;;;;5087313;28;20192;-85
2022/12/20 09:15:57;;;;;;;2.78;1.15;;;21.20;99.90;;;;;;5089176;28;20667;-85
2022/12/20 09:18:28;;;;;;;5.32;1.25;;;21.20;99.90;;;;;;5078385;28;20203;-87
2022/12/20 09:21:01;;;;;;;4.95;2.08;;;21.30;99.90;;;;;;5082374;28;20207;-85
2022/12/20 09:23:35;;;;;;;3.88;2.17;;;21.20;99.90;;;;;;5091130;28;20195;-84
2022/12/20 09:26:06;;;;;;;2.45;0.70;;;21.20;99.90;;;;;;5097446;28;20187;-84
2022/12/20 09:28:37;;;;;;;2.30;0.93;;;21.10;99.90;;;;;;5115046;28;20709;-85
2022/12/20 09:31:09;;;;;;;3.00;1.20;;;21.00;99.90;;;;;;5108563;28;20266;-85
2022/12/20 09:33:40;;;;;;;3.78;1.20;;;20.90;99.90;;;;;;5096601;28;20193;-83
2022/12/20 09:36:14;;;;;;;3.45;0.90;;;20.90;99.90;;;;;;5095012;28;20211;-85
2022/12/20 09:38:48;;;;;;;2.80;0.80;;;20.90;99.90;;;;;;5093111;28;20221;-83
2022/12/20 09:41:30;;;;;;;1.35;0.65;;;20.80;99.90;;;;;;5093625;28;20298;-83
2022/12/20 09:44:02;;;;;;;2.20;0.85;;;20.90;99.90;;;;;;5090592;28;20191;-83
2022/12/20 09:46:34;;;;;;;3.22;0.80;;;20.80;99.90;;;;;;5092459;28;20192;-82
2022/12/20 09:49:05;;;;;;;4.50;1.00;;;20.90;99.90;;;;;;5093349;28;20573;-83
2022/12/20 09:52:07;;;;;;;1.90;1.10;;;20.80;99.90;;;;;;5091110;28;20313;-83
2022/12/20 09:54:49;;;;;;;2.80;1.00;;;20.80;99.90;;;;;;5065903;28;20275;-83
2022/12/20 09:57:28;;;;;;;2.55;0.98;;;20.80;99.90;;;;;;5093614;28;20578;-82
2022/12/20 09:59:59;;;;;;;3.70;1.20;;;20.70;99.90;;;;;;5090280;28;20226;-82
2022/12/20 10:02:32;;;;;;;4.18;1.00;;;20.70;99.90;;;;;;5093662;28;20571;-83
2022/12/20 10:05:06;;;;;;;2.75;0.90;;;20.70;99.90;;;;;;5092098;28;20192;-83
2022/12/20 10:07:44;;;;;;;2.42;0.80;;;20.60;99.90;;;;;;5093242;28;20557;-83
2022/12/20 10:10:41;;;;;;;2.67;0.88;;;20.60;99.90;;;;;;5093192;28;20274;-84
2022/12/20 10:13:24;;;;;;;1.92;0.70;;;20.60;99.90;;;;;;5083307;28;20599;-85
2022/12/20 10:16:00;;;;;;;2.35;0.77;;;20.60;99.90;;;;;;5093626;28;20195;-83
2022/12/20 10:18:46;;;;;;;3.70;0.90;;;20.50;99.90;;;;;;5089252;28;20203;-83
2022/12/20 10:21:26;;;;;;;2.47;0.77;;;20.40;99.90;;;;;;5084551;28;20199;-83
2022/12/20 10:24:02;;;;;;;2.47;0.80;;;20.40;99.90;;;;;;5093726;28;20205;-83
2022/12/20 10:26:35;;;;;;;2.30;0.80;;;20.40;99.90;;;;;;5084284;28;20668;-83
2022/12/20 10:29:06;;;;;;;3.85;0.90;;;20.40;99.90;;;;;;5084964;28;20524;-83
2022/12/20 10:31:37;;;;;;;1.95;0.73;;;20.40;99.90;;;;;;5091861;28;20314;-84
2022/12/20 10:34:08;;;;;;;2.38;0.65;;;20.40;99.90;;;;;;5093911;28;20175;-85
2022/12/20 10:36:40;;;;;;;3.47;0.70;;;20.40;99.90;;;;;;5072705;28;20239;-85
2022/12/20 10:39:12;;;;;;;2.95;0.80;;;20.30;99.90;;;;;;5086858;28;20684;-84
2022/12/20 10:41:52;;;;;;;1.83;0.60;;;20.40;99.90;;;;;;5093032;28;20264;-84
2022/12/20 10:44:27;;;;;;;2.20;0.60;;;20.30;99.90;;;;;;5084986;28;20207;-83
2022/12/20 10:46:59;;;;;;;3.10;0.63;;;20.30;99.90;;;;;;5091914;28;20285;-83
2022/12/20 10:49:35;;;;;;;2.28;0.70;;;20.30;99.90;;;;;;5089701;28;20689;-83
2022/12/20 10:52:14;;;;;;;1.60;0.60;;;20.30;99.90;;;;;;5091947;28;20300;-85
2022/12/20 10:54:46;;;;;;;1.58;0.50;;;20.30;99.90;;;;;;5092359;28;20302;-83
2022/12/20 10:57:22;;;;;;;1.58;0.60;;;20.30;99.90;;;;;;5095915;28;20637;-84
2022/12/20 10:59:56;;;;;;;2.92;0.50;;;20.30;99.90;;;;;;5092546;28;20197;-83
2022/12/20 11:02:32;;;;;;;2.85;0.70;;;20.30;99.90;;;;;;5082848;28;20199;-83
2022/12/20 11:05:05;;;;;;;1.23;0.40;;;20.20;99.90;;;;;;5090901;28;20283;-83
2022/12/20 11:07:36;;;;;;;2.42;0.60;;;20.20;99.90;;;;;;5072072;28;20198;-83
2022/12/20 11:10:21;;;;;;;2.05;0.60;;;20.20;99.90;;;;;;5071998;28;20640;-82
2022/12/20 11:13:00;;;;;;;4.10;0.80;;;20.20;99.90;;;;;;5090487;28;20223;-84
2022/12/20 11:15:32;;;;;;;3.08;0.50;;;20.20;99.90;;;;;;5088086;28;20282;-84
2022/12/20 11:18:07;;;;;;;3.53;0.70;;;20.20;99.90;;;;;;5088696;28;20231;-84
2022/12/20 11:20:44;;;;;;;2.33;0.60;;;20.20;99.90;;;;;;5089795;28;20199;-82
2022/12/20 11:23:26;;;;;;;2.67;0.63;;;20.30;99.90;;;;;;5086904;28;20191;-83
2022/12/20 11:26:11;;;;;;;1.85;0.63;;;20.30;99.90;;;;;;5093685;28;20195;-83
2022/12/20 11:28:57;;;;;;;2.28;0.85;;;20.30;99.90;;;;;;5086721;28;20230;-82
2022/12/20 11:31:37;;;;;;;1.52;0.80;;;20.20;99.90;;;;;;5085696;28;20227;-82
2022/12/20 11:34:20;;;;;;;2.70;0.52;;;20.10;99.90;;;;;;5088379;28;20196;-82
2022/12/20 11:37:16;;;;;;;2.65;0.77;;;20.20;99.90;;;;;;5084068;28;20285;-84
2022/12/20 11:40:04;;;;;;;4.93;0.68;;;20.20;99.90;;;;;;5091233;28;20195;-83
2022/12/20 11:42:45;;;;;;;4.00;0.63;;;20.20;99.90;;;;;;5087832;28;20226;-84
2022/12/20 11:45:26;;;;;;;3.63;0.90;;;20.20;99.90;;;;;;5078852;28;20714;-83
2022/12/20 11:48:26;;;;;;;3.10;0.70;;;20.20;99.90;;;;;;5083930;28;20679;-85
2022/12/20 11:51:06;;;;;;;3.10;0.95;;;20.20;99.90;;;;;;5093525;28;20195;-85
2022/12/20 11:53:40;;;;;;;3.92;0.70;;;20.20;99.90;;;;;;5093550;28;20235;-84
2022/12/20 11:56:20;;;;;;;3.70;0.98;;;20.10;99.90;;;;;;5096436;28;20206;-84
2022/12/20 11:58:55;;;;;;;4.05;0.80;;;20.20;99.90;;;;;;5100184;28;20222;-84
2022/12/20 12:01:32;;;;;;;4.22;0.77;;;20.20;99.90;;;;;;5095015;28;20649;-84
2022/12/20 12:04:15;;;;;;;3.47;0.85;;;20.20;99.90;;;;;;5095374;28;20195;-83
2022/12/20 12:06:49;;;;;;;2.63;0.85;;;20.20;99.90;;;;;;5094601;28;20195;-84
2022/12/20 12:09:26;;;;;;;1.90;0.70;;;20.20;99.90;;;;;;5093143;28;20277;-83
2022/12/20 12:12:02;;;;;;;3.90;0.90;;;20.20;99.90;;;;;;5094658;28;20258;-83
2022/12/20 12:14:47;;;;;;;4.20;1.10;;;20.10;99.90;;;;;;5094114;28;20281;-84
2022/12/20 12:17:27;;;;;;;3.72;0.75;;;20.10;99.90;;;;;;5087846;28;21136;-84
2022/12/20 12:20:23;;;;;;;4.68;0.85;;;20.10;99.90;;;;;;5074115;28;20650;-82
2022/12/20 12:23:05;;;;;;;1.70;0.70;;;20.10;99.90;;;;;;5089727;28;20237;-83
2022/12/20 12:25:36;;;;;;;2.00;0.70;;;20.00;99.90;;;;;;5096138;28;20201;-83
2022/12/20 12:28:09;;;;;;;2.05;0.60;;;20.10;99.90;;;;;;5094610;28;20199;-85
2022/12/20 12:30:43;;;;;;;5.03;0.60;;;20.10;99.90;;;;;;5095360;28;20242;-86
2022/12/20 12:33:20;;;;;;;2.78;0.82;;;20.10;99.90;;;;;;5098400;28;20309;-85
2022/12/20 12:36:03;;;;;;;1.50;0.60;;;20.10;99.90;;;;;;5073268;28;20555;-85
2022/12/20 12:38:51;;;;;;;3.53;0.70;;;20.10;99.90;;;;;;5071781;28;20629;-84
2022/12/20 12:42:03;;;;;;;2.60;0.70;;;20.10;99.90;;;;;;5073657;28;20762;-84
2022/12/20 12:44:50;;;;;;;4.03;0.80;;;20.10;99.90;;;;;;5073418;28;20210;-84
2022/12/20 12:47:26;;;;;;;2.72;0.60;;;20.20;99.90;;;;;;5092947;28;20203;-83
2022/12/20 12:49:59;;;;;;;3.67;0.63;;;20.20;99.90;;;;;;5088971;28;20191;-83
2022/12/20 12:52:45;;;;;;;1.67;0.60;;;20.10;99.90;;;;;;5090794;28;20219;-82
2022/12/20 12:55:47;;;;;;;4.85;0.75;;;20.10;99.90;;;;;;5086893;28;20562;-84
2022/12/20 12:58:41;;;;;;;1.92;0.68;;;20.10;99.90;;;;;;5088556;28;20202;-83
2022/12/20 13:01:14;;;;;;;4.95;0.80;;;20.10;99.90;;;;;;5094376;28;20282;-86
2022/12/20 13:04:03;;;;;;;3.67;0.68;;;20.10;99.90;;;;;;5088211;28;20213;-85
2022/12/20 13:06:59;;;;;;;4.30;0.85;;;20.10;99.90;;;;;;5075346;28;20195;-85
2022/12/20 13:09:45;;;;;;;3.13;0.80;;;20.10;99.90;;;;;;5077326;28;20279;-85
2022/12/20 13:12:58;;;;;;;2.25;1.00;;;20.00;99.90;;;;;;5088937;28;20301;-85
2022/12/20 13:15:51;;;;;;;3.47;0.85;;;19.90;99.90;;;;;;5096456;28;20206;-86
2022/12/20 13:18:27;;;;;;;2.13;0.80;;;19.70;99.90;;;;;;5043001;28;20200;-85
2022/12/20 13:21:33;;;;;;;4.47;0.70;;;19.70;99.90;;;;;;5052793;28;20204;-83
2022/12/20 13:24:49;;;;;;;3.35;0.70;;;19.70;99.90;;;;;;5052788;28;20200;-83
2022/12/20 13:27:34;;;;;;;2.67;0.60;;;19.60;99.90;;;;;;5052795;28;20205;-83
2022/12/20 13:30:32;;;;;;;4.90;0.70;;;19.60;99.90;;;;;;5052570;28;20207;-84
2022/12/20 13:33:27;;;;;;;4.45;1.00;;;19.50;99.90;;;;;;5054939;28;20239;-83
2022/12/20 13:36:01;;;;;;;4.10;0.80;;;19.60;99.90;;;;;;5053200;28;20197;-84